sensor_id;sensor_type;location;lat;lon;timestamp;pressure;altitude;pressure_sealevel;temperature;humidity
14120;BME280;7138;49.246;9.100;2023-11-19T00:00:34;98846.91;;;9.30;76.62
14120;BME280;7138;49.246;9.100;2023-11-19T00:03:01;98842.25;;;9.31;76.30
14120;BME280;7138;49.246;9.100;2023-11-19T00:05:27;98842.75;;;9.27;76.45
14120;BME280;7138;49.246;9.100;2023-11-19T00:07:54;98841.66;;;9.28;76.71
14120;BME280;7138;49.246;9.100;2023-11-19T00:10:20;98836.69;;;9.25;76.56
14120;BME280;7138;49.246;9.100;2023-11-19T00:12:48;98840.47;;;9.24;76.62
14120;BME280;7138;49.246;9.100;2023-11-19T00:15:15;98832.28;;;9.24;76.88
14120;BME280;7138;49.246;9.100;2023-11-19T00:17:43;98832.88;;;9.26;76.68
14120;BME280;7138;49.246;9.100;2023-11-19T00:20:11;98828.00;;;9.28;76.75
14120;BME280;7138;49.246;9.100;2023-11-19T00:22:37;98829.44;;;9.31;76.74
14120;BME280;7138;49.246;9.100;2023-11-19T00:25:06;98832.28;;;9.36;76.53
14120;BME280;7138;49.246;9.100;2023-11-19T00:27:32;98825.50;;;9.39;76.69
14120;BME280;7138;49.246;9.100;2023-11-19T00:29:58;98821.69;;;9.40;76.40
14120;BME280;7138;49.246;9.100;2023-11-19T00:32:24;98812.44;;;9.41;76.70
14120;BME280;7138;49.246;9.100;2023-11-19T00:34:50;98807.56;;;9.43;76.67
14120;BME280;7138;49.246;9.100;2023-11-19T00:37:16;98810.88;;;9.45;76.36
14120;BME280;7138;49.246;9.100;2023-11-19T00:39:43;98798.53;;;9.42;76.52
14120;BME280;7138;49.246;9.100;2023-11-19T00:42:13;98803.16;;;9.42;76.70
14120;BME280;7138;49.246;9.100;2023-11-19T00:44:39;98792.47;;;9.40;76.60
14120;BME280;7138;49.246;9.100;2023-11-19T00:47:06;98786.41;;;9.38;76.61
14120;BME280;7138;49.246;9.100;2023-11-19T00:49:32;98789.41;;;9.37;76.91
14120;BME280;7138;49.246;9.100;2023-11-19T00:52:01;98780.38;;;9.36;76.83
14120;BME280;7138;49.246;9.100;2023-11-19T00:54:28;98775.94;;;9.35;77.05
14120;BME280;7138;49.246;9.100;2023-11-19T00:56:54;98773.47;;;9.34;77.11
14120;BME280;7138;49.246;9.100;2023-11-19T00:59:21;98782.72;;;9.33;77.07
14120;BME280;7138;49.246;9.100;2023-11-19T01:01:47;98782.97;;;9.31;77.04
14120;BME280;7138;49.246;9.100;2023-11-19T01:04:19;98771.81;;;9.33;77.05
14120;BME280;7138;49.246;9.100;2023-11-19T01:06:45;98773.47;;;9.34;76.87
14120;BME280;7138;49.246;9.100;2023-11-19T01:09:10;98775.38;;;9.33;76.94
14120;BME280;7138;49.246;9.100;2023-11-19T01:11:36;98774.28;;;9.34;76.96
14120;BME280;7138;49.246;9.100;2023-11-19T01:14:02;98772.19;;;9.36;77.15
14120;BME280;7138;49.246;9.100;2023-11-19T01:16:30;98776.56;;;9.37;77.08
14120;BME280;7138;49.246;9.100;2023-11-19T01:18:56;98770.84;;;9.39;77.00
14120;BME280;7138;49.246;9.100;2023-11-19T01:21:22;98785.09;;;9.41;77.03
14120;BME280;7138;49.246;9.100;2023-11-19T01:23:48;98780.22;;;9.43;77.09
14120;BME280;7138;49.246;9.100;2023-11-19T01:26:14;98784.16;;;9.47;76.96
14120;BME280;7138;49.246;9.100;2023-11-19T01:28:40;98788.53;;;9.48;76.98
14120;BME280;7138;49.246;9.100;2023-11-19T01:31:10;98777.38;;;9.49;77.01
14120;BME280;7138;49.246;9.100;2023-11-19T01:33:38;98775.72;;;9.48;76.96
14120;BME280;7138;49.246;9.100;2023-11-19T01:36:05;98771.06;;;9.49;77.13
14120;BME280;7138;49.246;9.100;2023-11-19T01:38:31;98759.78;;;9.45;77.05
14120;BME280;7138;49.246;9.100;2023-11-19T01:40:57;98765.03;;;9.47;77.23
14120;BME280;7138;49.246;9.100;2023-11-19T01:43:32;98760.59;;;9.46;77.33
14120;BME280;7138;49.246;9.100;2023-11-19T01:45:59;98756.81;;;9.47;77.22
14120;BME280;7138;49.246;9.100;2023-11-19T01:48:25;98769.03;;;9.44;77.24
14120;BME280;7138;49.246;9.100;2023-11-19T01:50:53;98774.16;;;9.41;77.50
14120;BME280;7138;49.246;9.100;2023-11-19T01:53:20;98775.50;;;9.38;77.71
14120;BME280;7138;49.246;9.100;2023-11-19T01:55:47;98770.63;;;9.40;77.56
14120;BME280;7138;49.246;9.100;2023-11-19T01:58:14;98769.53;;;9.41;77.91
14120;BME280;7138;49.246;9.100;2023-11-19T02:00:40;98769.03;;;9.44;77.84
14120;BME280;7138;49.246;9.100;2023-11-19T02:03:07;98778.69;;;9.47;77.47
14120;BME280;7138;49.246;9.100;2023-11-19T02:05:34;98776.78;;;9.47;77.35
14120;BME280;7138;49.246;9.100;2023-11-19T02:08:02;98770.81;;;9.50;77.53
14120;BME280;7138;49.246;9.100;2023-11-19T02:10:28;98766.19;;;9.51;77.41
14120;BME280;7138;49.246;9.100;2023-11-19T02:12:54;98777.94;;;9.51;77.37
14120;BME280;7138;49.246;9.100;2023-11-19T02:15:20;98770.56;;;9.52;77.57
14120;BME280;7138;49.246;9.100;2023-11-19T02:17:50;98764.03;;;9.53;77.53
14120;BME280;7138;49.246;9.100;2023-11-19T02:20:16;98759.66;;;9.52;77.62
14120;BME280;7138;49.246;9.100;2023-11-19T02:22:42;98756.66;;;9.53;77.40
14120;BME280;7138;49.246;9.100;2023-11-19T02:25:17;98760.81;;;9.56;77.63
14120;BME280;7138;49.246;9.100;2023-11-19T02:27:53;98742.50;;;9.56;77.88
14120;BME280;7138;49.246;9.100;2023-11-19T02:30:23;98746.94;;;9.57;77.69
14120;BME280;7138;49.246;9.100;2023-11-19T02:32:52;98732.75;;;9.61;77.67
14120;BME280;7138;49.246;9.100;2023-11-19T02:35:18;98725.97;;;9.63;77.58
14120;BME280;7138;49.246;9.100;2023-11-19T02:37:44;98724.66;;;9.66;77.43
14120;BME280;7138;49.246;9.100;2023-11-19T02:40:10;98725.25;;;9.68;77.33
14120;BME280;7138;49.246;9.100;2023-11-19T02:42:36;98736.41;;;9.66;77.21
14120;BME280;7138;49.246;9.100;2023-11-19T02:45:05;98739.16;;;9.66;77.70
14120;BME280;7138;49.246;9.100;2023-11-19T02:47:32;98729.88;;;9.67;77.44
14120;BME280;7138;49.246;9.100;2023-11-19T02:49:59;98718.72;;;9.69;77.53
14120;BME280;7138;49.246;9.100;2023-11-19T02:52:25;98728.56;;;9.70;77.60
14120;BME280;7138;49.246;9.100;2023-11-19T02:54:51;98718.22;;;9.72;77.58
14120;BME280;7138;49.246;9.100;2023-11-19T02:57:17;98703.47;;;9.73;77.73
14120;BME280;7138;49.246;9.100;2023-11-19T02:59:46;98678.28;;;9.71;77.79
14120;BME280;7138;49.246;9.100;2023-11-19T03:02:13;98688.41;;;9.70;77.83
14120;BME280;7138;49.246;9.100;2023-11-19T03:04:41;98693.63;;;9.72;77.74
14120;BME280;7138;49.246;9.100;2023-11-19T03:07:09;98680.78;;;9.72;77.61
14120;BME280;7138;49.246;9.100;2023-11-19T03:09:35;98683.25;;;9.74;77.75
14120;BME280;7138;49.246;9.100;2023-11-19T03:12:01;98685.50;;;9.77;77.76
14120;BME280;7138;49.246;9.100;2023-11-19T03:14:28;98686.31;;;9.77;77.71
14120;BME280;7138;49.246;9.100;2023-11-19T03:16:53;98686.31;;;9.77;77.90
14120;BME280;7138;49.246;9.100;2023-11-19T03:19:21;98692.41;;;9.79;77.58
14120;BME280;7138;49.246;9.100;2023-11-19T03:21:46;98686.44;;;9.82;77.68
14120;BME280;7138;49.246;9.100;2023-11-19T03:24:13;98672.50;;;9.84;77.66
14120;BME280;7138;49.246;9.100;2023-11-19T03:26:40;98671.19;;;9.86;77.80
14120;BME280;7138;49.246;9.100;2023-11-19T03:29:05;98672.00;;;9.87;77.61
14120;BME280;7138;49.246;9.100;2023-11-19T03:31:32;98664.41;;;9.89;77.66
14120;BME280;7138;49.246;9.100;2023-11-19T03:33:57;98667.97;;;9.90;77.63
14120;BME280;7138;49.246;9.100;2023-11-19T03:36:25;98664.16;;;9.91;77.63
14120;BME280;7138;49.246;9.100;2023-11-19T03:38:50;98655.13;;;9.90;77.75
14120;BME280;7138;49.246;9.100;2023-11-19T03:41:18;98659.78;;;9.90;77.84
14120;BME280;7138;49.246;9.100;2023-11-19T03:43:43;98660.59;;;9.90;77.59
14120;BME280;7138;49.246;9.100;2023-11-19T03:46:17;98643.59;;;9.88;77.99
14120;BME280;7138;49.246;9.100;2023-11-19T03:48:43;98641.69;;;9.89;78.02
14120;BME280;7138;49.246;9.100;2023-11-19T03:51:09;98644.19;;;9.90;77.79
14120;BME280;7138;49.246;9.100;2023-11-19T03:53:36;98650.50;;;9.91;77.92
14120;BME280;7138;49.246;9.100;2023-11-19T03:56:02;98648.59;;;9.91;77.95
14120;BME280;7138;49.246;9.100;2023-11-19T03:58:29;98654.06;;;9.91;78.22
14120;BME280;7138;49.246;9.100;2023-11-19T04:00:55;98649.41;;;9.92;78.29
14120;BME280;7138;49.246;9.100;2023-11-19T04:03:20;98650.00;;;9.94;78.42
14120;BME280;7138;49.246;9.100;2023-11-19T04:05:46;98638.47;;;9.92;79.04
14120;BME280;7138;49.246;9.100;2023-11-19T04:08:12;98643.69;;;9.93;79.43
14120;BME280;7138;49.246;9.100;2023-11-19T04:10:39;98634.41;;;9.94;80.47
14120;BME280;7138;49.246;9.100;2023-11-19T04:13:05;98642.28;;;9.91;82.67
14120;BME280;7138;49.246;9.100;2023-11-19T04:15:31;98642.53;;;9.89;84.52
14120;BME280;7138;49.246;9.100;2023-11-19T04:17:57;98647.56;;;9.97;85.31
14120;BME280;7138;49.246;9.100;2023-11-19T04:20:23;98651.75;;;10.00;87.75
14120;BME280;7138;49.246;9.100;2023-11-19T04:22:50;98640.22;;;10.14;88.21
14120;BME280;7138;49.246;9.100;2023-11-19T04:25:16;98634.69;;;10.26;87.38
14120;BME280;7138;49.246;9.100;2023-11-19T04:27:46;98631.28;;;10.36;88.05
14120;BME280;7138;49.246;9.100;2023-11-19T04:30:13;98623.78;;;10.48;88.00
14120;BME280;7138;49.246;9.100;2023-11-19T04:32:40;98623.38;;;10.56;88.14
14120;BME280;7138;49.246;9.100;2023-11-19T04:35:07;98613.13;;;10.68;87.56
14120;BME280;7138;49.246;9.100;2023-11-19T04:37:33;98621.41;;;10.73;87.61
14120;BME280;7138;49.246;9.100;2023-11-19T04:39:59;98613.28;;;10.79;87.72
14120;BME280;7138;49.246;9.100;2023-11-19T04:42:25;98628.44;;;10.86;87.83
14120;BME280;7138;49.246;9.100;2023-11-19T04:44:52;98640.28;;;10.92;87.96
14120;BME280;7138;49.246;9.100;2023-11-19T04:47:18;98626.78;;;10.85;88.51
14120;BME280;7138;49.246;9.100;2023-11-19T04:49:44;98627.66;;;10.91;88.10
14120;BME280;7138;49.246;9.100;2023-11-19T04:52:10;98623.94;;;10.97;87.72
14120;BME280;7138;49.246;9.100;2023-11-19T04:54:41;98613.59;;;11.04;87.27
14120;BME280;7138;49.246;9.100;2023-11-19T04:57:07;98619.25;;;11.19;86.98
14120;BME280;7138;49.246;9.100;2023-11-19T04:59:36;98620.69;;;11.27;86.38
14120;BME280;7138;49.246;9.100;2023-11-19T05:02:04;98620.13;;;11.25;87.27
14120;BME280;7138;49.246;9.100;2023-11-19T05:04:30;98619.94;;;11.32;86.71
14120;BME280;7138;49.246;9.100;2023-11-19T05:06:55;98617.31;;;11.42;86.61
14120;BME280;7138;49.246;9.100;2023-11-19T05:09:21;98627.13;;;11.38;86.90
14120;BME280;7138;49.246;9.100;2023-11-19T05:11:47;98621.44;;;11.44;86.40
14120;BME280;7138;49.246;9.100;2023-11-19T05:14:14;98617.13;;;11.48;86.20
14120;BME280;7138;49.246;9.100;2023-11-19T05:16:40;98618.44;;;11.46;86.76
14120;BME280;7138;49.246;9.100;2023-11-19T05:19:07;98632.50;;;11.49;86.22
14120;BME280;7138;49.246;9.100;2023-11-19T05:21:34;98629.41;;;11.46;86.85
14120;BME280;7138;49.246;9.100;2023-11-19T05:24:01;98616.03;;;11.49;86.54
14120;BME280;7138;49.246;9.100;2023-11-19T05:26:30;98603.53;;;11.37;87.25
14120;BME280;7138;49.246;9.100;2023-11-19T05:28:56;98621.44;;;11.44;86.96
14120;BME280;7138;49.246;9.100;2023-11-19T05:31:22;98622.63;;;11.48;87.21
14120;BME280;7138;49.246;9.100;2023-11-19T05:33:48;98618.25;;;11.52;86.92
14120;BME280;7138;49.246;9.100;2023-11-19T05:36:15;98620.75;;;11.54;87.03
14120;BME280;7138;49.246;9.100;2023-11-19T05:38:41;98620.09;;;11.47;87.02
14120;BME280;7138;49.246;9.100;2023-11-19T05:41:07;98618.53;;;11.51;87.00
14120;BME280;7138;49.246;9.100;2023-11-19T05:43:33;98616.97;;;11.60;86.57
14120;BME280;7138;49.246;9.100;2023-11-19T05:45:59;98631.56;;;11.66;86.52
14120;BME280;7138;49.246;9.100;2023-11-19T05:48:27;98619.56;;;11.72;86.43
14120;BME280;7138;49.246;9.100;2023-11-19T05:50:53;98623.63;;;11.69;86.18
14120;BME280;7138;49.246;9.100;2023-11-19T05:53:20;98619.00;;;11.70;86.54
14120;BME280;7138;49.246;9.100;2023-11-19T05:55:46;98625.88;;;11.72;86.11
14120;BME280;7138;49.246;9.100;2023-11-19T05:58:22;98629.19;;;11.74;86.33
14120;BME280;7138;49.246;9.100;2023-11-19T06:00:48;98635.56;;;11.80;85.97
14120;BME280;7138;49.246;9.100;2023-11-19T06:03:16;98632.81;;;11.80;85.84
14120;BME280;7138;49.246;9.100;2023-11-19T06:05:44;98629.47;;;11.78;86.41
14120;BME280;7138;49.246;9.100;2023-11-19T06:08:10;98621.34;;;11.83;86.41
14120;BME280;7138;49.246;9.100;2023-11-19T06:10:38;98628.47;;;11.84;86.28
14120;BME280;7138;49.246;9.100;2023-11-19T06:13:04;98620.59;;;11.93;85.69
14120;BME280;7138;49.246;9.100;2023-11-19T06:15:31;98614.31;;;11.97;85.63
14120;BME280;7138;49.246;9.100;2023-11-19T06:17:59;98612.06;;;11.89;85.86
14120;BME280;7138;49.246;9.100;2023-11-19T06:20:27;98615.97;;;11.98;85.44
14120;BME280;7138;49.246;9.100;2023-11-19T06:22:54;98604.44;;;11.96;85.28
14120;BME280;7138;49.246;9.100;2023-11-19T06:25:20;98604.00;;;12.09;84.83
14120;BME280;7138;49.246;9.100;2023-11-19T06:27:47;98599.31;;;12.05;85.40
14120;BME280;7138;49.246;9.100;2023-11-19T06:30:14;98588.31;;;12.05;85.50
14120;BME280;7138;49.246;9.100;2023-11-19T06:32:39;98591.91;;;12.05;85.47
14120;BME280;7138;49.246;9.100;2023-11-19T06:35:06;98602.56;;;12.02;85.17
14120;BME280;7138;49.246;9.100;2023-11-19T06:37:32;98598.50;;;12.09;85.16
14120;BME280;7138;49.246;9.100;2023-11-19T06:39:58;98602.31;;;12.03;85.46
14120;BME280;7138;49.246;9.100;2023-11-19T06:42:24;98603.41;;;12.02;85.67
14120;BME280;7138;49.246;9.100;2023-11-19T06:44:51;98620.72;;;12.08;85.10
14120;BME280;7138;49.246;9.100;2023-11-19T06:47:17;98613.38;;;12.13;84.96
14120;BME280;7138;49.246;9.100;2023-11-19T06:49:44;98619.97;;;12.12;85.26
14120;BME280;7138;49.246;9.100;2023-11-19T06:52:10;98620.88;;;12.23;84.72
14120;BME280;7138;49.246;9.100;2023-11-19T06:54:37;98619.19;;;12.22;85.34
14120;BME280;7138;49.246;9.100;2023-11-19T06:57:04;98615.09;;;12.25;84.75
14120;BME280;7138;49.246;9.100;2023-11-19T06:59:30;98620.00;;;12.23;84.77
14120;BME280;7138;49.246;9.100;2023-11-19T07:01:57;98631.34;;;12.31;84.61
14120;BME280;7138;49.246;9.100;2023-11-19T07:04:25;98630.03;;;12.39;84.29
14120;BME280;7138;49.246;9.100;2023-11-19T07:06:50;98633.31;;;12.36;84.77
14120;BME280;7138;49.246;9.100;2023-11-19T07:09:19;98627.28;;;12.39;84.62
14120;BME280;7138;49.246;9.100;2023-11-19T07:11:45;98636.88;;;12.36;84.44
14120;BME280;7138;49.246;9.100;2023-11-19T07:14:11;98639.09;;;12.39;84.64
14120;BME280;7138;49.246;9.100;2023-11-19T07:16:37;98649.81;;;12.41;84.42
14120;BME280;7138;49.246;9.100;2023-11-19T07:19:06;98622.31;;;12.36;83.95
14120;BME280;7138;49.246;9.100;2023-11-19T07:21:32;98628.66;;;12.41;83.98
14120;BME280;7138;49.246;9.100;2023-11-19T07:24:06;98631.13;;;12.38;84.02
14120;BME280;7138;49.246;9.100;2023-11-19T07:26:32;98635.50;;;12.39;83.44
14120;BME280;7138;49.246;9.100;2023-11-19T07:28:58;98639.38;;;12.43;84.27
14120;BME280;7138;49.246;9.100;2023-11-19T07:31:24;98658.13;;;12.51;83.33
14120;BME280;7138;49.246;9.100;2023-11-19T07:33:50;98649.69;;;12.63;83.46
14120;BME280;7138;49.246;9.100;2023-11-19T07:36:17;98651.34;;;12.64;82.80
14120;BME280;7138;49.246;9.100;2023-11-19T07:38:43;98648.38;;;12.70;82.41
14120;BME280;7138;49.246;9.100;2023-11-19T07:41:10;98649.25;;;12.81;82.40
14120;BME280;7138;49.246;9.100;2023-11-19T07:43:39;98640.78;;;12.88;82.82
14120;BME280;7138;49.246;9.100;2023-11-19T07:46:06;98639.41;;;12.90;82.02
14120;BME280;7138;49.246;9.100;2023-11-19T07:48:35;98652.66;;;12.98;82.31
14120;BME280;7138;49.246;9.100;2023-11-19T07:51:02;98661.19;;;13.02;81.93
14120;BME280;7138;49.246;9.100;2023-11-19T07:53:29;98670.28;;;13.08;82.34
14120;BME280;7138;49.246;9.100;2023-11-19T07:55:55;98674.94;;;13.02;82.23
14120;BME280;7138;49.246;9.100;2023-11-19T07:58:21;98672.19;;;13.02;82.38
14120;BME280;7138;49.246;9.100;2023-11-19T08:00:46;98683.72;;;12.99;82.92
14120;BME280;7138;49.246;9.100;2023-11-19T08:03:12;98667.50;;;13.02;83.68
14120;BME280;7138;49.246;9.100;2023-11-19T08:05:38;98673.22;;;12.96;83.97
14120;BME280;7138;49.246;9.100;2023-11-19T08:08:05;98661.41;;;12.95;84.13
14120;BME280;7138;49.246;9.100;2023-11-19T08:10:32;98664.97;;;12.91;84.09
14120;BME280;7138;49.246;9.100;2023-11-19T08:13:00;98662.75;;;12.88;84.97
14120;BME280;7138;49.246;9.100;2023-11-19T08:15:27;98657.78;;;12.85;84.58
14120;BME280;7138;49.246;9.100;2023-11-19T08:17:53;98644.09;;;12.90;85.32
14120;BME280;7138;49.246;9.100;2023-11-19T08:20:19;98655.09;;;12.95;85.18
14120;BME280;7138;49.246;9.100;2023-11-19T08:22:45;98665.03;;;13.06;85.46
14120;BME280;7138;49.246;9.100;2023-11-19T08:25:10;98663.72;;;13.09;85.15
14120;BME280;7138;49.246;9.100;2023-11-19T08:27:37;98666.53;;;13.19;84.49
14120;BME280;7138;49.246;9.100;2023-11-19T08:30:05;98672.09;;;13.34;84.58
14120;BME280;7138;49.246;9.100;2023-11-19T08:32:32;98677.03;;;13.32;83.88
14120;BME280;7138;49.246;9.100;2023-11-19T08:34:58;98678.19;;;13.41;84.28
14120;BME280;7138;49.246;9.100;2023-11-19T08:37:24;98669.09;;;13.46;82.81
14120;BME280;7138;49.246;9.100;2023-11-19T08:39:50;98677.94;;;13.53;82.63
14120;BME280;7138;49.246;9.100;2023-11-19T08:42:16;98683.19;;;13.65;82.78
14120;BME280;7138;49.246;9.100;2023-11-19T08:44:48;98680.78;;;13.83;82.91
14120;BME280;7138;49.246;9.100;2023-11-19T08:47:17;98689.88;;;13.89;80.94
14120;BME280;7138;49.246;9.100;2023-11-19T08:49:45;98688.50;;;13.97;81.99
14120;BME280;7138;49.246;9.100;2023-11-19T08:52:11;98695.66;;;14.03;80.85
14120;BME280;7138;49.246;9.100;2023-11-19T08:54:37;98678.91;;;14.04;78.88
14120;BME280;7138;49.246;9.100;2023-11-19T08:57:04;98676.41;;;14.13;81.57
14120;BME280;7138;49.246;9.100;2023-11-19T08:59:30;98682.19;;;14.22;80.18
14120;BME280;7138;49.246;9.100;2023-11-19T09:01:57;98682.22;;;14.27;80.15
14120;BME280;7138;49.246;9.100;2023-11-19T09:04:23;98674.78;;;14.32;79.66
14120;BME280;7138;49.246;9.100;2023-11-19T09:06:49;98682.75;;;14.34;79.31
14120;BME280;7138;49.246;9.100;2023-11-19T09:09:15;98682.22;;;14.37;79.03
14120;BME280;7138;49.246;9.100;2023-11-19T09:11:41;98687.16;;;14.35;78.54
14120;BME280;7138;49.246;9.100;2023-11-19T09:14:07;98692.13;;;14.43;78.83
14120;BME280;7138;49.246;9.100;2023-11-19T09:16:32;98694.88;;;14.43;77.38
14120;BME280;7138;49.246;9.100;2023-11-19T09:19:00;98688.84;;;14.46;77.39
14120;BME280;7138;49.246;9.100;2023-11-19T09:21:27;98693.81;;;14.49;77.79
14120;BME280;7138;49.246;9.100;2023-11-19T09:23:55;98681.41;;;14.57;77.47
14120;BME280;7138;49.246;9.100;2023-11-19T09:26:21;98685.00;;;14.52;77.03
14120;BME280;7138;49.246;9.100;2023-11-19T09:28:47;98683.91;;;14.58;76.74
14120;BME280;7138;49.246;9.100;2023-11-19T09:31:16;98682.78;;;14.64;77.17
14120;BME280;7138;49.246;9.100;2023-11-19T09:33:42;98690.78;;;14.61;77.00
14120;BME280;7138;49.246;9.100;2023-11-19T09:36:12;98698.22;;;14.70;76.40
14120;BME280;7138;49.246;9.100;2023-11-19T09:38:39;98714.22;;;14.58;75.38
14120;BME280;7138;49.246;9.100;2023-11-19T09:41:06;98700.16;;;14.60;76.68
14120;BME280;7138;49.246;9.100;2023-11-19T09:43:35;98715.84;;;14.69;77.19
14120;BME280;7138;49.246;9.100;2023-11-19T09:46:07;98683.06;;;14.73;76.96
14120;BME280;7138;49.246;9.100;2023-11-19T09:48:37;98688.28;;;14.80;76.77
14120;BME280;7138;49.246;9.100;2023-11-19T09:51:05;98689.13;;;14.80;74.49
14120;BME280;7138;49.246;9.100;2023-11-19T09:53:33;98698.19;;;14.86;75.00
14120;BME280;7138;49.246;9.100;2023-11-19T09:56:01;98679.72;;;14.81;75.35
14120;BME280;7138;49.246;9.100;2023-11-19T09:58:29;98674.75;;;14.83;74.69
14120;BME280;7138;49.246;9.100;2023-11-19T10:00:56;98675.88;;;14.82;74.76
14120;BME280;7138;49.246;9.100;2023-11-19T10:03:26;98664.84;;;14.77;75.45
14120;BME280;7138;49.246;9.100;2023-11-19T10:05:53;98662.34;;;14.91;76.81
14120;BME280;7138;49.246;9.100;2023-11-19T10:08:20;98670.06;;;14.94;73.82
14120;BME280;7138;49.246;9.100;2023-11-19T10:10:47;98673.31;;;15.06;75.66
14120;BME280;7138;49.246;9.100;2023-11-19T10:13:13;98677.41;;;15.24;74.27
14120;BME280;7138;49.246;9.100;2023-11-19T10:15:41;98675.75;;;15.28;72.86
14120;BME280;7138;49.246;9.100;2023-11-19T10:18:07;98679.84;;;15.30;73.07
14120;BME280;7138;49.246;9.100;2023-11-19T10:20:36;98687.84;;;15.37;73.26
14120;BME280;7138;49.246;9.100;2023-11-19T10:23:02;98689.22;;;15.40;73.74
14120;BME280;7138;49.246;9.100;2023-11-19T10:25:29;98689.50;;;15.43;72.89
14120;BME280;7138;49.246;9.100;2023-11-19T10:27:57;98693.28;;;15.52;72.64
14120;BME280;7138;49.246;9.100;2023-11-19T10:30:24;98692.47;;;15.57;72.90
14120;BME280;7138;49.246;9.100;2023-11-19T10:33:04;98674.50;;;15.59;72.10
14120;BME280;7138;49.246;9.100;2023-11-19T10:35:31;98667.31;;;15.69;72.23
14120;BME280;7138;49.246;9.100;2023-11-19T10:38:00;98673.06;;;15.77;71.74
14120;BME280;7138;49.246;9.100;2023-11-19T10:40:38;98671.19;;;15.68;70.07
14120;BME280;7138;49.246;9.100;2023-11-19T10:43:07;98679.47;;;15.62;71.14
14120;BME280;7138;49.246;9.100;2023-11-19T10:45:38;98672.25;;;15.72;71.85
14120;BME280;7138;49.246;9.100;2023-11-19T10:48:05;98662.91;;;15.62;69.82
14120;BME280;7138;49.246;9.100;2023-11-19T10:50:34;98659.06;;;15.58;69.59
14120;BME280;7138;49.246;9.100;2023-11-19T10:53:09;98658.25;;;15.63;69.87
14120;BME280;7138;49.246;9.100;2023-11-19T10:55:37;98651.56;;;15.69;69.65
14120;BME280;7138;49.246;9.100;2023-11-19T10:58:09;98652.66;;;15.73;70.04
14120;BME280;7138;49.246;9.100;2023-11-19T11:00:44;98660.44;;;15.66;68.75
14120;BME280;7138;49.246;9.100;2023-11-19T11:03:17;98640.53;;;15.74;69.62
14120;BME280;7138;49.246;9.100;2023-11-19T11:05:47;98649.06;;;15.73;68.93
14120;BME280;7138;49.246;9.100;2023-11-19T11:08:14;98645.47;;;15.77;67.94
14120;BME280;7138;49.246;9.100;2023-11-19T11:10:44;98639.91;;;15.82;67.63
14120;BME280;7138;49.246;9.100;2023-11-19T11:13:14;98666.13;;;15.85;68.19
14120;BME280;7138;49.246;9.100;2023-11-19T11:15:40;98636.09;;;15.73;67.96
14120;BME280;7138;49.246;9.100;2023-11-19T11:18:09;98643.28;;;15.74;69.02
14120;BME280;7138;49.246;9.100;2023-11-19T11:20:35;98632.72;;;15.81;68.03
14120;BME280;7138;49.246;9.100;2023-11-19T11:23:29;98638.19;;;15.91;69.75
14120;BME280;7138;49.246;9.100;2023-11-19T11:26:32;98658.81;;;16.04;67.44
14120;BME280;7138;49.246;9.100;2023-11-19T11:29:04;98642.22;;;16.09;67.74
14120;BME280;7138;49.246;9.100;2023-11-19T11:31:44;98649.59;;;16.19;67.38
14120;BME280;7138;49.246;9.100;2023-11-19T11:34:45;98649.59;;;16.19;65.66
14120;BME280;7138;49.246;9.100;2023-11-19T11:37:19;98644.00;;;16.24;66.24
14120;BME280;7138;49.246;9.100;2023-11-19T11:39:47;98647.13;;;16.17;64.66
14120;BME280;7138;49.246;9.100;2023-11-19T11:42:35;98640.78;;;16.17;63.46
14120;BME280;7138;49.246;9.100;2023-11-19T11:45:05;98632.19;;;16.18;65.48
14120;BME280;7138;49.246;9.100;2023-11-19T11:48:15;98644.63;;;16.16;63.44
14120;BME280;7138;49.246;9.100;2023-11-19T11:50:50;98630.78;;;16.21;64.08
14120;BME280;7138;49.246;9.100;2023-11-19T11:53:18;98627.22;;;16.15;63.71
14120;BME280;7138;49.246;9.100;2023-11-19T11:56:03;98617.28;;;16.14;63.51
14120;BME280;7138;49.246;9.100;2023-11-19T11:58:32;98617.22;;;16.25;64.23
14120;BME280;7138;49.246;9.100;2023-11-19T12:01:03;98616.38;;;16.24;64.27
14120;BME280;7138;49.246;9.100;2023-11-19T12:03:32;98606.97;;;16.25;63.51
14120;BME280;7138;49.246;9.100;2023-11-19T12:05:58;98620.25;;;16.28;63.49
14120;BME280;7138;49.246;9.100;2023-11-19T12:08:29;98597.03;;;16.29;63.30
14120;BME280;7138;49.246;9.100;2023-11-19T12:10:57;98603.41;;;16.25;62.84
14120;BME280;7138;49.246;9.100;2023-11-19T12:13:29;98614.66;;;16.33;64.71
14120;BME280;7138;49.246;9.100;2023-11-19T12:16:11;98605.88;;;16.26;64.33
14120;BME280;7138;49.246;9.100;2023-11-19T12:18:39;98608.00;;;16.34;64.83
14120;BME280;7138;49.246;9.100;2023-11-19T12:21:06;98603.59;;;16.33;65.19
14120;BME280;7138;49.246;9.100;2023-11-19T12:23:35;98600.91;;;16.28;64.05
14120;BME280;7138;49.246;9.100;2023-11-19T12:26:31;98615.84;;;16.27;64.75
14120;BME280;7138;49.246;9.100;2023-11-19T12:28:58;98613.00;;;16.32;63.15
14120;BME280;7138;49.246;9.100;2023-11-19T12:31:25;98612.94;;;16.37;64.83
14120;BME280;7138;49.246;9.100;2023-11-19T12:33:51;98612.03;;;16.47;65.25
14120;BME280;7138;49.246;9.100;2023-11-19T12:36:19;98605.69;;;16.46;64.35
14120;BME280;7138;49.246;9.100;2023-11-19T12:38:46;98599.63;;;16.44;64.11
14120;BME280;7138;49.246;9.100;2023-11-19T12:41:11;98598.81;;;16.44;63.00
14120;BME280;7138;49.246;9.100;2023-11-19T12:43:39;98606.72;;;16.56;64.54
14120;BME280;7138;49.246;9.100;2023-11-19T12:46:17;98588.25;;;16.51;62.91
14120;BME280;7138;49.246;9.100;2023-11-19T12:48:46;98583.56;;;16.46;62.37
14120;BME280;7138;49.246;9.100;2023-11-19T12:51:13;98586.03;;;16.48;63.94
14120;BME280;7138;49.246;9.100;2023-11-19T12:53:48;98591.00;;;16.51;63.27
14120;BME280;7138;49.246;9.100;2023-11-19T12:56:20;98583.88;;;16.45;64.17
14120;BME280;7138;49.246;9.100;2023-11-19T12:58:47;98584.50;;;16.37;63.71
14120;BME280;7138;49.246;9.100;2023-11-19T13:01:17;98579.34;;;16.25;63.05
14120;BME280;7138;49.246;9.100;2023-11-19T13:03:45;98578.88;;;16.18;63.77
14120;BME280;7138;49.246;9.100;2023-11-19T13:06:13;98572.56;;;16.12;63.90
14120;BME280;7138;49.246;9.100;2023-11-19T13:08:42;98579.00;;;16.03;63.44
14120;BME280;7138;49.246;9.100;2023-11-19T13:11:13;98572.91;;;16.06;63.62
14120;BME280;7138;49.246;9.100;2023-11-19T13:13:55;98561.50;;;16.17;62.94
14120;BME280;7138;49.246;9.100;2023-11-19T13:16:22;98564.28;;;16.12;62.62
14120;BME280;7138;49.246;9.100;2023-11-19T13:18:49;98561.72;;;16.21;62.46